Time;durP1;ratioP1;P1;durP2;ratioP2;P2;SDS_P1;SDS_P2;PMS_P1;PMS_P2;Temp;Humidity;BMP_temperature;BMP_pressure;BME280_temperature;BME280_humidity;BME280_pressure;Samples;Min_cycle;Max_cycle;Signal;HPM_P1;HPM_P2
2020/12/24 00:00:27;;;;;;;1.23;1.00;;;11.30;92.40;;;;;;5028561;28;20197;-73
2020/12/24 00:02:52;;;;;;;1.33;0.80;;;11.20;92.00;;;;;;5027225;28;20385;-74
2020/12/24 00:05:18;;;;;;;1.53;0.73;;;11.20;90.90;;;;;;5027059;28;20209;-73
2020/12/24 00:07:44;;;;;;;1.63;0.70;;;11.20;89.00;;;;;;5026579;28;20633;-72
2020/12/24 00:10:10;;;;;;;1.87;0.97;;;11.20;87.10;;;;;;5028240;28;20283;-73
2020/12/24 00:12:37;;;;;;;1.00;0.77;;;11.30;84.70;;;;;;5027290;28;20244;-72
2020/12/24 00:15:04;;;;;;;1.10;0.70;;;11.40;83.30;;;;;;5013584;28;20477;-72
2020/12/24 00:17:30;;;;;;;3.50;0.63;;;11.40;83.00;;;;;;5026426;28;20438;-73
2020/12/24 00:19:56;;;;;;;0.73;0.70;;;11.40;82.50;;;;;;5025356;28;20797;-73
2020/12/24 00:22:22;;;;;;;1.50;0.50;;;11.40;82.80;;;;;;5025467;28;20452;-73
2020/12/24 00:24:47;;;;;;;1.90;0.80;;;11.40;79.50;;;;;;5025340;28;20300;-73
2020/12/24 00:27:13;;;;;;;1.03;0.70;;;11.40;80.50;;;;;;5026520;28;20239;-72
2020/12/24 00:29:39;;;;;;;1.37;0.80;;;11.50;79.30;;;;;;5026946;28;20189;-74
2020/12/24 00:32:05;;;;;;;1.10;0.70;;;11.40;78.90;;;;;;5026480;28;20459;-73
2020/12/24 00:34:31;;;;;;;3.00;1.17;;;11.40;78.60;;;;;;5015416;28;20218;-72
2020/12/24 00:36:57;;;;;;;1.10;0.60;;;11.40;78.70;;;;;;5027319;28;20951;-73
2020/12/24 00:39:23;;;;;;;1.30;0.60;;;11.40;78.60;;;;;;5029157;28;20601;-72
2020/12/24 00:41:49;;;;;;;0.67;0.60;;;11.40;78.30;;;;;;5028445;28;20451;-73
2020/12/24 00:44:15;;;;;;;1.80;0.90;;;11.40;79.30;;;;;;5028277;28;20197;-73
2020/12/24 00:46:40;;;;;;;1.13;0.73;;;11.40;79.00;;;;;;5025352;28;20451;-74
2020/12/24 00:49:06;;;;;;;6.47;0.97;;;11.30;79.20;;;;;;5026063;28;20415;-72
2020/12/24 00:51:32;;;;;;;2.23;0.90;;;11.30;80.90;;;;;;5025619;28;20209;-74
2020/12/24 00:53:57;;;;;;;1.47;1.07;;;11.30;80.50;;;;;;5019081;28;20271;-75
2020/12/24 00:56:23;;;;;;;1.80;1.20;;;11.20;82.10;;;;;;5021496;28;20663;-74
2020/12/24 00:58:49;;;;;;;2.07;0.97;;;11.10;82.80;;;;;;5020992;28;20306;-75
2020/12/24 01:01:14;;;;;;;2.60;1.37;;;11.10;82.80;;;;;;5022017;28;20554;-72
2020/12/24 01:03:40;;;;;;;1.90;1.10;;;11.00;82.80;;;;;;5029060;28;20189;-74
2020/12/24 01:06:06;;;;;;;2.47;1.17;;;10.90;83.10;;;;;;5027113;28;20575;-74
2020/12/24 01:08:32;;;;;;;3.87;1.23;;;10.90;83.70;;;;;;5028610;28;20173;-75
2020/12/24 01:10:57;;;;;;;1.37;0.70;;;10.80;84.60;;;;;;5028906;28;20204;-75
2020/12/24 01:13:23;;;;;;;3.33;0.80;;;10.70;86.50;;;;;;5028794;28;20195;-74
2020/12/24 01:15:49;;;;;;;1.10;0.70;;;10.60;87.80;;;;;;5028378;28;20192;-75
2020/12/24 01:18:15;;;;;;;1.03;0.70;;;10.50;89.60;;;;;;5027348;28;20428;-74
2020/12/24 01:20:41;;;;;;;1.50;0.90;;;10.30;90.30;;;;;;5028866;28;21019;-73
2020/12/24 01:23:06;;;;;;;4.83;0.90;;;10.10;91.40;;;;;;5027467;28;20205;-73
2020/12/24 01:25:32;;;;;;;3.87;0.90;;;10.00;92.30;;;;;;5028464;28;20718;-75
2020/12/24 01:27:59;;;;;;;3.17;2.20;;;9.90;93.20;;;;;;5020861;28;20185;-74
2020/12/24 01:30:25;;;;;;;1.90;0.63;;;9.80;93.70;;;;;;5029576;28;20510;-74
2020/12/24 01:32:50;;;;;;;0.90;0.70;;;9.80;93.90;;;;;;5028400;28;20518;-74
2020/12/24 01:35:16;;;;;;;2.80;0.80;;;9.80;94.10;;;;;;5028728;28;20243;-73
2020/12/24 01:37:42;;;;;;;1.67;0.70;;;9.80;94.50;;;;;;5027666;28;20200;-74
2020/12/24 01:40:08;;;;;;;1.83;0.70;;;9.80;94.50;;;;;;5029217;28;20189;-75
2020/12/24 01:42:33;;;;;;;3.30;0.77;;;9.80;94.80;;;;;;5027556;28;20220;-76
2020/12/24 01:44:59;;;;;;;1.27;0.93;;;9.70;94.90;;;;;;5028357;28;20293;-74
2020/12/24 01:47:25;;;;;;;1.33;0.80;;;9.70;95.20;;;;;;5028858;28;20597;-73
2020/12/24 01:49:50;;;;;;;14.20;2.27;;;9.70;95.40;;;;;;5028145;28;20200;-75
2020/12/24 01:52:34;;;;;;;1.60;0.90;;;9.70;95.70;;;;;;5014402;28;20651;-75
2020/12/24 01:55:05;;;;;;;1.93;0.80;;;9.70;95.90;;;;;;5026649;28;20271;-74
2020/12/24 01:57:31;;;;;;;1.70;1.10;;;9.70;96.20;;;;;;5027520;28;20578;-75
2020/12/24 01:59:57;;;;;;;1.70;0.90;;;9.70;96.40;;;;;;5028392;28;20506;-76
2020/12/24 02:02:23;;;;;;;2.00;0.77;;;9.70;96.60;;;;;;5026934;28;20223;-74
2020/12/24 02:04:49;;;;;;;4.70;2.50;;;9.80;96.70;;;;;;5024118;28;20688;-74
2020/12/24 02:07:17;;;;;;;1.77;1.17;;;9.80;96.70;;;;;;5017849;28;20424;-74
2020/12/24 02:09:47;;;;;;;2.87;1.07;;;9.90;96.90;;;;;;5031515;28;20423;-74
2020/12/24 02:12:14;;;;;;;1.73;1.00;;;9.80;96.00;;;;;;5031858;28;20443;-74
2020/12/24 02:14:40;;;;;;;2.17;1.47;;;9.90;95.50;;;;;;5030380;28;20435;-74
2020/12/24 02:17:06;;;;;;;3.40;1.13;;;9.90;95.70;;;;;;5031207;28;20431;-75
2020/12/24 02:19:32;;;;;;;4.27;1.03;;;9.90;95.90;;;;;;5043934;28;20450;-75
2020/12/24 02:21:57;;;;;;;1.03;0.80;;;9.90;95.70;;;;;;5030251;28;20456;-74
2020/12/24 02:24:23;;;;;;;2.47;1.10;;;9.90;93.70;;;;;;5030853;28;20193;-73
2020/12/24 02:26:49;;;;;;;1.23;0.80;;;9.80;92.40;;;;;;5030392;28;20226;-74
2020/12/24 02:29:15;;;;;;;1.67;0.60;;;9.80;90.50;;;;;;5014443;28;20221;-74
2020/12/24 02:31:41;;;;;;;3.07;0.63;;;9.70;89.30;;;;;;5011207;28;20777;-74
2020/12/24 02:34:06;;;;;;;2.00;0.70;;;9.70;86.50;;;;;;5013489;28;20202;-74
2020/12/24 02:36:33;;;;;;;1.17;0.63;;;9.80;86.00;;;;;;5020933;28;20193;-72
2020/12/24 02:38:59;;;;;;;1.40;0.80;;;9.70;86.50;;;;;;5014415;28;20201;-75
2020/12/24 02:41:25;;;;;;;2.40;0.80;;;9.70;86.20;;;;;;5021978;28;20453;-73
2020/12/24 02:43:51;;;;;;;2.80;1.30;;;9.70;83.30;;;;;;5013781;28;20452;-73
2020/12/24 02:46:17;;;;;;;1.50;1.20;;;9.70;83.30;;;;;;5010782;28;20214;-74
2020/12/24 02:48:43;;;;;;;1.10;0.80;;;9.60;82.10;;;;;;5021231;28;20200;-75
2020/12/24 02:51:10;;;;;;;2.07;0.80;;;9.60;81.50;;;;;;5010298;28;21032;-74
2020/12/24 02:53:36;;;;;;;4.33;0.90;;;9.60;81.10;;;;;;5014354;28;20440;-74
2020/12/24 02:56:03;;;;;;;2.53;0.90;;;9.60;81.70;;;;;;5023397;28;20519;-73
2020/12/24 02:58:28;;;;;;;4.67;1.07;;;9.60;82.20;;;;;;5028706;28;20428;-73
2020/12/24 03:00:54;;;;;;;1.73;1.23;;;9.60;82.40;;;;;;5020463;28;20929;-75
2020/12/24 03:03:20;;;;;;;1.50;0.93;;;9.60;83.00;;;;;;5029111;28;20209;-73
2020/12/24 03:05:47;;;;;;;1.27;0.80;;;9.60;84.40;;;;;;5018621;28;20732;-75
2020/12/24 03:08:13;;;;;;;1.00;0.60;;;9.60;85.30;;;;;;5021568;28;20431;-74
2020/12/24 03:10:38;;;;;;;0.90;0.60;;;9.60;85.20;;;;;;5011261;28;20516;-73
2020/12/24 03:13:04;;;;;;;2.37;0.70;;;9.60;84.70;;;;;;5027849;28;20986;-75
2020/12/24 03:15:30;;;;;;;1.23;0.87;;;9.60;85.00;;;;;;5028937;28;20409;-75
2020/12/24 03:17:56;;;;;;;2.10;0.80;;;9.50;84.40;;;;;;5030720;28;20224;-74
2020/12/24 03:20:21;;;;;;;0.90;0.60;;;9.50;84.90;;;;;;5029399;28;20239;-75
2020/12/24 03:22:47;;;;;;;0.80;0.60;;;9.50;85.70;;;;;;5028842;28;20684;-74
2020/12/24 03:25:13;;;;;;;0.67;0.50;;;9.50;86.20;;;;;;5030344;28;20201;-75
2020/12/24 03:27:39;;;;;;;0.83;0.60;;;9.50;86.20;;;;;;5013690;28;20193;-73
2020/12/24 03:30:07;;;;;;;0.90;0.60;;;9.40;86.20;;;;;;5012571;28;20225;-73
2020/12/24 03:32:33;;;;;;;0.60;0.50;;;9.40;86.30;;;;;;5015694;28;20196;-72
2020/12/24 03:34:59;;;;;;;1.73;0.67;;;9.40;86.90;;;;;;5031181;28;20470;-72
2020/12/24 03:37:25;;;;;;;1.03;0.70;;;9.40;87.00;;;;;;5013197;28;20433;-74
2020/12/24 03:39:51;;;;;;;0.70;0.60;;;9.30;87.60;;;;;;5011255;28;20212;-75
2020/12/24 03:42:17;;;;;;;0.73;0.60;;;9.30;88.00;;;;;;5014542;28;20209;-72
2020/12/24 03:44:42;;;;;;;1.03;0.70;;;9.30;88.40;;;;;;5018459;28;20472;-74
2020/12/24 03:47:08;;;;;;;1.33;0.70;;;9.30;88.90;;;;;;5009892;28;20193;-75
2020/12/24 03:49:34;;;;;;;1.10;0.63;;;9.20;89.30;;;;;;5011013;28;20193;-74
2020/12/24 03:51:59;;;;;;;1.73;1.00;;;9.10;89.90;;;;;;5010552;28;20209;-74
2020/12/24 03:54:25;;;;;;;1.33;0.60;;;9.10;90.00;;;;;;5010744;28;20244;-74
2020/12/24 03:56:51;;;;;;;3.80;0.97;;;9.00;90.40;;;;;;5024725;28;20189;-74
2020/12/24 03:59:16;;;;;;;1.93;0.70;;;9.00;90.40;;;;;;5035340;28;20220;-73
2020/12/24 04:01:42;;;;;;;1.27;0.70;;;8.90;90.80;;;;;;5032419;28;20216;-74
2020/12/24 04:04:08;;;;;;;1.30;1.00;;;8.90;90.90;;;;;;5031373;28;20308;-75
2020/12/24 04:06:34;;;;;;;2.23;0.80;;;8.90;91.00;;;;;;5030273;28;20217;-73
2020/12/24 04:08:59;;;;;;;3.20;0.70;;;8.90;91.00;;;;;;5030105;28;20272;-72
2020/12/24 04:11:25;;;;;;;2.10;0.70;;;8.90;90.70;;;;;;5028775;28;20314;-75
2020/12/24 04:13:51;;;;;;;1.90;0.60;;;8.90;90.40;;;;;;5030012;28;20193;-74
2020/12/24 04:16:20;;;;;;;1.10;0.70;;;8.90;90.20;;;;;;5029551;28;20659;-75
2020/12/24 04:18:46;;;;;;;1.53;0.70;;;8.90;90.00;;;;;;5029641;28;20276;-75
2020/12/24 04:21:12;;;;;;;2.43;0.70;;;8.90;90.00;;;;;;5015610;28;20519;-74
2020/12/24 04:23:37;;;;;;;1.53;0.73;;;8.90;89.60;;;;;;5018373;28;20444;-74
2020/12/24 04:26:03;;;;;;;0.87;0.60;;;8.90;89.50;;;;;;5026787;28;20580;-74
2020/12/24 04:28:29;;;;;;;0.90;0.60;;;8.90;89.60;;;;;;5033213;28;20196;-73
2020/12/24 04:30:55;;;;;;;1.80;0.70;;;8.90;89.50;;;;;;5039111;28;20223;-72
2020/12/24 04:33:20;;;;;;;1.10;0.63;;;8.90;89.60;;;;;;5028798;28;20205;-74
2020/12/24 04:35:46;;;;;;;1.73;0.70;;;8.90;89.70;;;;;;5014634;28;20208;-74
2020/12/24 04:38:12;;;;;;;1.30;0.70;;;9.00;90.20;;;;;;5015278;28;20182;-75
2020/12/24 04:40:38;;;;;;;0.90;0.60;;;8.90;90.70;;;;;;5009687;28;20193;-75
2020/12/24 04:43:04;;;;;;;1.57;0.80;;;8.90;90.80;;;;;;5020438;28;20290;-75
2020/12/24 04:45:31;;;;;;;1.73;0.70;;;8.80;90.80;;;;;;5028887;28;20216;-73
2020/12/24 04:47:58;;;;;;;1.47;0.60;;;8.80;91.10;;;;;;5027836;28;20431;-74
2020/12/24 04:50:29;;;;;;;1.07;0.70;;;8.80;91.10;;;;;;5028037;28;20451;-75
2020/12/24 04:52:55;;;;;;;1.40;0.60;;;8.80;91.20;;;;;;5027532;28;20535;-75
2020/12/24 04:55:22;;;;;;;2.77;0.90;;;8.80;91.10;;;;;;5029032;28;20428;-74
2020/12/24 04:57:49;;;;;;;0.80;0.50;;;8.90;90.90;;;;;;5029789;28;21187;-73
2020/12/24 05:00:19;;;;;;;3.33;0.80;;;8.90;90.70;;;;;;5028911;28;20490;-73
2020/12/24 05:02:59;;;;;;;1.50;1.10;;;8.90;90.70;;;;;;5029261;28;20463;-75
2020/12/24 05:05:24;;;;;;;1.17;0.70;;;9.00;90.60;;;;;;5009049;28;20471;-74
2020/12/24 05:07:50;;;;;;;0.80;0.50;;;8.90;90.40;;;;;;5022833;28;20420;-74
2020/12/24 05:10:16;;;;;;;0.63;0.50;;;8.90;90.20;;;;;;5009507;28;20182;-73
2020/12/24 05:12:42;;;;;;;1.17;0.60;;;8.80;90.30;;;;;;5022461;28;20444;-74
2020/12/24 05:15:24;;;;;;;1.07;0.53;;;8.80;90.20;;;;;;5029155;28;20177;-73
2020/12/24 05:17:50;;;;;;;1.30;0.60;;;8.70;90.40;;;;;;5029788;28;20196;-73
2020/12/24 05:20:15;;;;;;;1.77;0.80;;;8.60;90.60;;;;;;5027759;28;20448;-74
2020/12/24 05:22:41;;;;;;;1.87;0.60;;;8.60;90.80;;;;;;5029143;28;20217;-75
2020/12/24 05:25:11;;;;;;;1.40;0.60;;;8.50;90.90;;;;;;5027121;28;20267;-75
2020/12/24 05:27:40;;;;;;;0.60;0.50;;;8.50;91.30;;;;;;5029283;28;20177;-74
2020/12/24 05:30:07;;;;;;;0.60;0.60;;;8.40;91.30;;;;;;5029440;28;20462;-74
2020/12/24 05:32:33;;;;;;;3.27;0.60;;;8.40;91.50;;;;;;5028871;28;20526;-75
2020/12/24 05:35:10;;;;;;;0.70;0.60;;;8.30;91.50;;;;;;5017832;28;20442;-74
2020/12/24 05:37:36;;;;;;;1.07;0.60;;;8.30;91.60;;;;;;5029134;28;20424;-75
2020/12/24 05:40:24;;;;;;;1.43;0.70;;;8.20;91.60;;;;;;5035623;28;20515;-74
2020/12/24 05:42:54;;;;;;;0.70;0.47;;;8.20;91.80;;;;;;5020838;28;21018;-73
2020/12/24 05:45:22;;;;;;;1.17;0.60;;;8.10;92.00;;;;;;5019212;28;20467;-74
2020/12/24 05:48:05;;;;;;;3.03;0.50;;;8.10;92.00;;;;;;5033699;28;20918;-74
2020/12/24 05:50:31;;;;;;;0.90;0.50;;;8.10;91.70;;;;;;5032288;28;20785;-74
2020/12/24 05:53:14;;;;;;;2.57;0.70;;;8.10;91.90;;;;;;5032401;28;20463;-73
2020/12/24 05:55:41;;;;;;;3.73;0.60;;;8.00;91.70;;;;;;5029058;28;20210;-73
2020/12/24 05:58:08;;;;;;;0.80;0.70;;;8.00;91.70;;;;;;5033610;28;20435;-75
2020/12/24 06:00:35;;;;;;;0.70;0.60;;;8.00;91.70;;;;;;5034472;28;20437;-74
2020/12/24 06:03:20;;;;;;;1.43;0.90;;;8.00;91.60;;;;;;5035919;28;20440;-74
2020/12/24 06:05:54;;;;;;;4.13;0.90;;;8.00;91.40;;;;;;5036244;28;20550;-73
2020/12/24 06:08:28;;;;;;;3.60;0.80;;;8.00;91.50;;;;;;5036234;28;20427;-73
2020/12/24 06:11:10;;;;;;;1.10;0.63;;;8.00;91.50;;;;;;5035972;28;20416;-73
2020/12/24 06:13:37;;;;;;;1.57;0.73;;;8.00;91.50;;;;;;5023390;28;20448;-75
2020/12/24 06:16:04;;;;;;;4.43;1.00;;;8.00;91.50;;;;;;5032356;28;20518;-75
2020/12/24 06:18:35;;;;;;;3.17;0.77;;;8.00;91.40;;;;;;5020736;28;20448;-76
2020/12/24 06:21:01;;;;;;;1.80;1.27;;;8.00;91.40;;;;;;5030853;28;20987;-72
2020/12/24 06:23:31;;;;;;;1.00;0.90;;;8.10;91.10;;;;;;5030726;28;20432;-73
2020/12/24 06:25:59;;;;;;;2.57;0.90;;;8.10;91.10;;;;;;5031520;28;20482;-75
2020/12/24 06:28:28;;;;;;;1.80;0.90;;;8.10;91.10;;;;;;5022607;28;20425;-74
2020/12/24 06:30:57;;;;;;;2.30;0.87;;;8.10;91.20;;;;;;5030668;28;20416;-75
2020/12/24 06:33:28;;;;;;;1.60;0.90;;;8.20;90.30;;;;;;5021136;28;20469;-75
2020/12/24 06:35:54;;;;;;;2.10;1.23;;;8.20;90.10;;;;;;5010701;28;20619;-74
2020/12/24 06:38:45;;;;;;;1.50;1.00;;;8.30;90.10;;;;;;5012719;28;20433;-74
2020/12/24 06:41:28;;;;;;;1.57;1.03;;;8.30;90.00;;;;;;5021137;28;20428;-74
2020/12/24 06:43:54;;;;;;;3.03;1.03;;;8.40;89.30;;;;;;5031412;28;20436;-74
2020/12/24 06:46:20;;;;;;;2.20;1.00;;;8.40;89.20;;;;;;5031549;28;20814;-73
2020/12/24 06:49:02;;;;;;;4.90;1.00;;;8.30;89.00;;;;;;5014391;28;20417;-74
2020/12/24 06:51:51;;;;;;;1.93;1.00;;;8.30;89.60;;;;;;5025284;28;20442;-74
2020/12/24 06:54:27;;;;;;;1.90;0.83;;;8.20;89.30;;;;;;5020176;28;20443;-75
2020/12/24 06:57:36;;;;;;;1.60;0.87;;;8.20;89.60;;;;;;5032361;28;20952;-75
2020/12/24 07:00:23;;;;;;;1.80;1.23;;;8.20;89.90;;;;;;5026177;28;20874;-75
2020/12/24 07:02:52;;;;;;;1.43;0.87;;;8.20;89.70;;;;;;5010506;28;20440;-75
2020/12/24 07:05:43;;;;;;;2.77;0.90;;;8.30;90.00;;;;;;5011661;28;20472;-73
2020/12/24 07:08:29;;;;;;;5.20;1.30;;;8.30;89.70;;;;;;5010487;28;20459;-73
2020/12/24 07:10:55;;;;;;;6.43;1.17;;;8.30;89.20;;;;;;5008985;28;20429;-77
2020/12/24 07:13:41;;;;;;;3.87;1.27;;;8.20;88.70;;;;;;5009083;28;20957;-74
2020/12/24 07:16:09;;;;;;;2.40;1.00;;;8.30;88.60;;;;;;5008579;28;20525;-73
2020/12/24 07:18:36;;;;;;;3.00;1.13;;;8.30;88.00;;;;;;5015064;28;20468;-74
2020/12/24 07:21:06;;;;;;;3.70;1.40;;;8.40;87.70;;;;;;5010052;28;20769;-75
2020/12/24 07:23:40;;;;;;;3.23;1.57;;;8.40;87.10;;;;;;5009254;28;20519;-74
2020/12/24 07:26:07;;;;;;;6.40;1.87;;;8.40;86.60;;;;;;5008292;28;20523;-74
2020/12/24 07:28:36;;;;;;;7.53;2.30;;;8.40;86.20;;;;;;5008444;28;20495;-72
2020/12/24 07:31:05;;;;;;;4.73;1.37;;;8.50;86.00;;;;;;5026480;28;20514;-73
2020/12/24 07:33:32;;;;;;;4.47;1.30;;;8.50;85.70;;;;;;5024250;28;20423;-73
2020/12/24 07:35:58;;;;;;;8.17;1.40;;;8.50;85.90;;;;;;5023681;28;20425;-74
2020/12/24 07:38:29;;;;;;;4.33;1.40;;;8.50;85.70;;;;;;5010386;28;20790;-72
2020/12/24 07:40:55;;;;;;;2.10;1.03;;;8.50;85.20;;;;;;5029470;28;20427;-73
2020/12/24 07:43:21;;;;;;;3.60;1.00;;;8.50;85.50;;;;;;5028960;28;20475;-75
2020/12/24 07:45:47;;;;;;;3.43;0.90;;;8.50;84.60;;;;;;5028070;28;20471;-73
2020/12/24 07:48:18;;;;;;;6.40;1.50;;;8.50;84.10;;;;;;5029406;28;20470;-72
2020/12/24 07:50:45;;;;;;;4.63;1.60;;;8.60;83.80;;;;;;5009941;28;20182;-75
2020/12/24 07:53:27;;;;;;;6.03;2.13;;;8.60;83.40;;;;;;5010981;28;20523;-74
2020/12/24 07:56:03;;;;;;;4.07;1.50;;;8.60;83.00;;;;;;5014223;28;20983;-76
2020/12/24 07:58:29;;;;;;;4.37;1.57;;;8.60;82.80;;;;;;5029399;28;20420;-74
2020/12/24 08:00:56;;;;;;;2.53;1.10;;;8.60;82.50;;;;;;5029789;28;20431;-76
2020/12/24 08:03:21;;;;;;;4.30;1.33;;;8.70;81.90;;;;;;5024974;28;20452;-73
2020/12/24 08:05:48;;;;;;;2.80;1.17;;;8.70;81.50;;;;;;5009263;28;20456;-76
2020/12/24 08:08:23;;;;;;;3.23;1.50;;;8.70;80.90;;;;;;5015709;28;20185;-76
2020/12/24 08:10:49;;;;;;;4.70;1.43;;;8.80;81.20;;;;;;5015708;28;20444;-72
2020/12/24 08:13:15;;;;;;;8.53;1.60;;;8.80;80.60;;;;;;5028364;28;20483;-74
2020/12/24 08:15:46;;;;;;;9.43;1.30;;;8.80;80.50;;;;;;5028387;28;20216;-74
2020/12/24 08:18:14;;;;;;;3.40;1.13;;;8.80;79.70;;;;;;5028533;28;20621;-73
2020/12/24 08:20:57;;;;;;;3.43;1.40;;;8.90;79.00;;;;;;5029778;28;20467;-74
2020/12/24 08:23:30;;;;;;;9.83;1.40;;;8.90;79.00;;;;;;5017622;28;20442;-73
2020/12/24 08:25:56;;;;;;;3.50;1.50;;;8.90;79.00;;;;;;5028406;28;20531;-75
2020/12/24 08:28:26;;;;;;;4.20;1.30;;;8.90;78.70;;;;;;5030683;28;20416;-76
2020/12/24 08:30:53;;;;;;;3.20;1.10;;;8.80;79.00;;;;;;5030409;28;20519;-77
2020/12/24 08:33:19;;;;;;;2.70;0.97;;;8.90;79.50;;;;;;5031980;28;20443;-76
2020/12/24 08:35:45;;;;;;;5.80;1.60;;;8.80;79.20;;;;;;5032277;28;20435;-76
2020/12/24 08:38:16;;;;;;;3.37;1.30;;;8.80;79.60;;;;;;5030574;28;20981;-78
2020/12/24 08:40:43;;;;;;;2.40;1.10;;;8.80;79.60;;;;;;5032310;28;20420;-76
2020/12/24 08:43:10;;;;;;;2.70;1.10;;;8.80;79.90;;;;;;5031860;28;20459;-78
2020/12/24 08:45:47;;;;;;;2.80;0.90;;;8.80;80.20;;;;;;5022718;28;20475;-78
2020/12/24 08:48:33;;;;;;;4.50;1.10;;;8.80;80.30;;;;;;5018401;28;20459;-77
2020/12/24 08:50:59;;;;;;;1.47;0.70;;;8.70;80.60;;;;;;5021131;28;20508;-76
2020/12/24 08:53:28;;;;;;;4.20;1.17;;;8.60;80.80;;;;;;5030319;28;20447;-77
2020/12/24 08:55:54;;;;;;;1.63;0.70;;;8.60;81.50;;;;;;5031400;28;20447;-78
2020/12/24 08:58:20;;;;;;;1.87;0.70;;;8.60;81.40;;;;;;5029667;28;20428;-78
2020/12/24 09:00:46;;;;;;;2.80;1.10;;;8.50;81.80;;;;;;5019699;28;20463;-73
2020/12/24 09:03:23;;;;;;;2.37;0.83;;;8.50;82.20;;;;;;5031027;28;20946;-75
2020/12/24 09:05:48;;;;;;;1.93;1.30;;;8.50;82.10;;;;;;5030620;28;20830;-75
2020/12/24 09:08:27;;;;;;;1.90;1.00;;;8.50;82.40;;;;;;5030870;28;20428;-74
2020/12/24 09:10:54;;;;;;;1.40;0.97;;;8.60;82.40;;;;;;5030422;28;20651;-75
2020/12/24 09:13:20;;;;;;;3.77;1.10;;;8.50;82.20;;;;;;5029150;28;20946;-74
2020/12/24 09:15:46;;;;;;;2.27;1.00;;;8.50;82.40;;;;;;5028761;28;20446;-75
2020/12/24 09:18:12;;;;;;;6.90;1.40;;;8.50;82.50;;;;;;5030245;28;20435;-73
2020/12/24 09:20:38;;;;;;;2.73;1.10;;;8.60;83.00;;;;;;5033231;28;20423;-75
2020/12/24 09:23:15;;;;;;;1.87;1.00;;;8.60;82.70;;;;;;5028662;28;20217;-74
2020/12/24 09:25:46;;;;;;;2.40;0.83;;;8.70;82.10;;;;;;5025351;28;20471;-75
2020/12/24 09:28:23;;;;;;;2.60;0.90;;;8.70;81.90;;;;;;5025670;28;20420;-74
2020/12/24 09:30:50;;;;;;;1.10;0.87;;;8.60;81.70;;;;;;5029610;28;20428;-74
2020/12/24 09:33:16;;;;;;;1.63;0.80;;;8.70;81.90;;;;;;5033207;28;20444;-74
2020/12/24 09:35:42;;;;;;;2.83;1.00;;;8.70;81.20;;;;;;5031688;28;20802;-74
2020/12/24 09:38:08;;;;;;;1.97;0.87;;;8.70;81.40;;;;;;5032332;28;20517;-75
2020/12/24 09:40:34;;;;;;;2.77;0.80;;;8.70;81.20;;;;;;5032702;28;20919;-75
2020/12/24 09:43:00;;;;;;;2.40;0.90;;;8.70;81.50;;;;;;5025706;28;20467;-74
2020/12/24 09:45:27;;;;;;;1.83;0.90;;;8.70;81.20;;;;;;5018988;28;20475;-75
2020/12/24 09:47:53;;;;;;;3.17;0.83;;;8.70;81.50;;;;;;5033337;28;20196;-75
2020/12/24 09:50:19;;;;;;;2.50;1.10;;;8.80;81.20;;;;;;5017951;28;20466;-73
2020/12/24 09:52:45;;;;;;;1.83;0.80;;;8.80;81.10;;;;;;5032253;28;20471;-73
2020/12/24 09:55:11;;;;;;;2.57;1.10;;;8.80;81.20;;;;;;5028101;28;20923;-74
2020/12/24 09:57:36;;;;;;;1.70;0.80;;;8.80;81.10;;;;;;5033717;28;20224;-73
2020/12/24 10:00:08;;;;;;;2.20;0.90;;;8.80;80.90;;;;;;5028750;28;20201;-73
2020/12/24 10:02:34;;;;;;;1.40;0.70;;;8.90;80.90;;;;;;5028188;28;20473;-74
2020/12/24 10:05:00;;;;;;;1.10;0.80;;;8.90;80.30;;;;;;5020365;28;20619;-76
2020/12/24 10:07:26;;;;;;;3.47;1.10;;;8.90;80.30;;;;;;5017413;28;20484;-74
2020/12/24 10:09:52;;;;;;;2.73;0.93;;;8.90;80.30;;;;;;5017749;28;20424;-74
2020/12/24 10:12:19;;;;;;;3.60;1.10;;;8.90;80.30;;;;;;5026785;28;20684;-75
2020/12/24 10:14:45;;;;;;;1.80;1.23;;;9.00;80.30;;;;;;5031805;28;20436;-75
2020/12/24 10:17:11;;;;;;;1.87;1.27;;;9.00;79.70;;;;;;5022517;28;20916;-75
2020/12/24 10:19:37;;;;;;;1.93;0.90;;;9.00;80.20;;;;;;5044153;28;20439;-74
2020/12/24 10:22:03;;;;;;;2.03;1.17;;;9.00;80.00;;;;;;5030118;28;20463;-74
2020/12/24 10:24:29;;;;;;;5.00;0.93;;;9.10;79.70;;;;;;5032999;28;20248;-76
2020/12/24 10:26:55;;;;;;;2.70;1.43;;;9.20;79.20;;;;;;5016212;28;20248;-73
2020/12/24 10:29:22;;;;;;;3.70;0.90;;;9.20;79.30;;;;;;5034168;28;20205;-74
2020/12/24 10:31:48;;;;;;;3.47;0.93;;;9.20;79.20;;;;;;5032728;28;20447;-75
2020/12/24 10:34:14;;;;;;;2.50;1.00;;;9.30;79.30;;;;;;5031879;28;20771;-74
2020/12/24 10:36:40;;;;;;;2.53;0.90;;;9.30;78.90;;;;;;5032714;28;20420;-74
2020/12/24 10:39:08;;;;;;;1.87;1.20;;;9.40;78.70;;;;;;5032890;28;20435;-73
2020/12/24 10:41:34;;;;;;;3.77;0.93;;;9.40;79.30;;;;;;5032666;28;20288;-74
2020/12/24 10:44:00;;;;;;;3.70;1.07;;;9.40;78.70;;;;;;5032821;28;21008;-75
2020/12/24 10:46:26;;;;;;;5.13;1.00;;;9.40;78.60;;;;;;5032600;28;20503;-73
2020/12/24 10:48:51;;;;;;;3.37;0.90;;;9.30;79.20;;;;;;5047295;28;20435;-74
2020/12/24 10:51:17;;;;;;;0.87;0.63;;;9.30;79.20;;;;;;5042183;28;20187;-74
2020/12/24 10:53:44;;;;;;;1.60;1.00;;;9.30;78.60;;;;;;5033158;28;20497;-75
2020/12/24 10:56:13;;;;;;;2.27;0.70;;;9.20;79.30;;;;;;5032072;28;20189;-73
2020/12/24 10:58:41;;;;;;;3.80;1.00;;;9.20;79.00;;;;;;5034390;28;20420;-73
2020/12/24 11:01:14;;;;;;;3.80;0.93;;;9.30;79.50;;;;;;5034490;28;20918;-75
2020/12/24 11:03:41;;;;;;;2.70;1.37;;;9.30;79.20;;;;;;5034058;28;20511;-75
2020/12/24 11:06:16;;;;;;;1.37;0.63;;;9.20;79.00;;;;;;5028084;28;20562;-74
2020/12/24 11:08:41;;;;;;;0.90;0.63;;;9.20;79.20;;;;;;5020901;28;20458;-75
2020/12/24 11:11:07;;;;;;;1.20;0.97;;;9.10;79.30;;;;;;5029156;28;21938;-74
2020/12/24 11:13:33;;;;;;;1.80;0.70;;;9.10;79.30;;;;;;5031758;28;20195;-75
2020/12/24 11:15:59;;;;;;;2.83;0.67;;;9.20;79.30;;;;;;5033822;28;20200;-73
2020/12/24 11:18:25;;;;;;;4.23;1.10;;;9.10;79.30;;;;;;5034690;28;20515;-73
2020/12/24 11:20:51;;;;;;;1.07;0.70;;;9.10;79.70;;;;;;5018099;28;20194;-74
2020/12/24 11:23:16;;;;;;;1.83;1.07;;;9.20;79.70;;;;;;5020502;28;20586;-74
2020/12/24 11:25:43;;;;;;;1.53;1.00;;;9.20;79.60;;;;;;5018520;28;20467;-75
2020/12/24 11:28:09;;;;;;;0.87;0.60;;;9.20;79.30;;;;;;5021933;28;20590;-76
2020/12/24 11:30:34;;;;;;;1.20;0.73;;;9.20;79.50;;;;;;5032770;28;20454;-73
2020/12/24 11:33:00;;;;;;;1.03;0.70;;;9.20;79.60;;;;;;5024724;28;20271;-72
2020/12/24 11:35:26;;;;;;;1.23;0.90;;;9.20;79.30;;;;;;5026510;28;20220;-73
2020/12/24 11:37:52;;;;;;;3.00;1.03;;;9.10;79.70;;;;;;5031864;28;20197;-73
2020/12/24 11:40:18;;;;;;;0.80;0.73;;;9.10;79.50;;;;;;5032806;28;20490;-72
2020/12/24 11:42:44;;;;;;;0.90;0.60;;;9.10;79.70;;;;;;5032309;28;20499;-73
2020/12/24 11:45:10;;;;;;;4.60;0.80;;;9.10;79.50;;;;;;5032196;28;20499;-74
2020/12/24 11:47:37;;;;;;;1.10;0.73;;;9.10;79.60;;;;;;5033831;28;20185;-72
2020/12/24 11:50:06;;;;;;;2.43;0.93;;;9.20;80.00;;;;;;5033086;28;20912;-72
2020/12/24 11:52:38;;;;;;;5.57;0.90;;;9.20;79.30;;;;;;5031021;28;20540;-74
2020/12/24 11:55:06;;;;;;;1.00;0.70;;;9.30;79.20;;;;;;5032635;28;20875;-73
2020/12/24 11:57:32;;;;;;;1.73;0.60;;;9.30;78.70;;;;;;5034145;28;20478;-74
2020/12/24 11:59:58;;;;;;;2.20;0.90;;;9.30;78.70;;;;;;5032265;28;20439;-73
2020/12/24 12:02:24;;;;;;;0.90;0.60;;;9.30;79.00;;;;;;5030301;28;20467;-73
2020/12/24 12:04:49;;;;;;;0.83;0.50;;;9.30;78.90;;;;;;5028585;28;20459;-73
2020/12/24 12:07:15;;;;;;;1.03;0.60;;;9.30;78.70;;;;;;5029952;28;20439;-72
2020/12/24 12:09:41;;;;;;;1.77;0.90;;;9.30;78.70;;;;;;5029161;28;20200;-75
2020/12/24 12:12:07;;;;;;;2.20;0.90;;;9.40;78.90;;;;;;5020168;28;20457;-74
2020/12/24 12:14:32;;;;;;;1.10;0.80;;;9.40;78.70;;;;;;5025122;28;20264;-73
2020/12/24 12:16:59;;;;;;;0.93;0.60;;;9.40;78.60;;;;;;5007295;28;20198;-74
2020/12/24 12:19:25;;;;;;;1.57;1.10;;;9.40;78.00;;;;;;5018419;28;20197;-73
2020/12/24 12:21:51;;;;;;;0.90;0.63;;;9.40;78.70;;;;;;5027165;28;20497;-73
2020/12/24 12:24:18;;;;;;;3.50;1.20;;;9.40;78.40;;;;;;5025302;28;20197;-74
2020/12/24 12:26:44;;;;;;;1.10;0.70;;;9.40;78.60;;;;;;5018343;28;20205;-73
2020/12/24 12:29:10;;;;;;;1.60;0.60;;;9.50;77.80;;;;;;5014053;28;20501;-72
2020/12/24 12:31:37;;;;;;;1.13;0.70;;;9.50;77.80;;;;;;5027414;28;20543;-73
2020/12/24 12:34:02;;;;;;;1.23;0.80;;;9.40;77.70;;;;;;5027159;28;20758;-72
2020/12/24 12:36:28;;;;;;;1.43;0.87;;;9.40;78.40;;;;;;5026074;28;20436;-72
2020/12/24 12:38:54;;;;;;;2.50;1.00;;;9.50;78.10;;;;;;5024527;28;20189;-73
2020/12/24 12:41:21;;;;;;;2.13;0.80;;;9.60;77.80;;;;;;5027923;28;20209;-73
2020/12/24 12:43:47;;;;;;;1.90;1.10;;;9.60;77.10;;;;;;5024874;28;20490;-73
2020/12/24 12:46:20;;;;;;;0.90;0.77;;;9.60;77.40;;;;;;5025956;28;20813;-74
2020/12/24 12:48:47;;;;;;;1.23;0.70;;;9.60;77.60;;;;;;5018208;28;20482;-74
2020/12/24 12:51:12;;;;;;;0.90;0.70;;;9.70;77.60;;;;;;5014088;28;20432;-74
2020/12/24 12:53:38;;;;;;;1.73;1.00;;;9.60;77.40;;;;;;5009861;28;20439;-74
2020/12/24 12:56:11;;;;;;;0.93;0.73;;;9.60;77.80;;;;;;5026505;28;20231;-74
2020/12/24 12:58:37;;;;;;;2.30;1.10;;;9.60;78.00;;;;;;5014536;28;20197;-74